Estación Meteorológica Peña el Pijo (Robertgarden) [ 12/11/19 23:47:31 CET ]

Fecha Hora Presion(HPa) Temp (°C) Humedad % Rocio (°C) Viento ( m/s) Direccion Lluvia 1Hora(mm) Lluvia 24H(mm) LLuvia Total(mm)
2019-Sep-04 01:01:40 1014.500 16.7 85 14.2       1.03 391.32
2019-Sep-04 02:01:53 1014.300 15.3 86 13.0       1.03 391.32
2019-Sep-04 03:01:45 1014.100 14.9 87 12.8       1.03 391.32
2019-Sep-04 04:01:44 1013.600 14.1 88 12.1       1.03 391.32
2019-Sep-04 05:09:25 1013.200 13.3 88 11.3       1.03 391.32
2019-Sep-04 06:01:48 1012.900 12.9 89 11.1       1.03 391.32
2019-Sep-04 07:02:01 1013.000 12.4 89 10.6       1.03 391.32
2019-Sep-04 08:01:51 1013.200 12.8 89 11.0       1.03 391.32
2019-Sep-04 09:01:47 1013.400 16.5 91 15.1       1.03 391.32
2019-Sep-04 10:02:06 1013.300 20.7 86 18.2       1.03 391.32
2019-Sep-04 11:02:02 1013.200 25.0 61 16.9       1.03 391.32
2019-Sep-04 12:01:57 1013.200 29.3 48 17.2       1.03 391.32
2019-Sep-04 13:01:55 1012.500 27.8 46 15.1       1.03 391.32
2019-Sep-04 14:01:52 1012.300 29.8 38 13.9       1.03 391.32
2019-Sep-04 15:01:33 1011.500 29.4 36 12.7       1.03 391.32
2019-Sep-04 16:01:36 1011.400 26.9 48 14.9       0.51 391.32
2019-Sep-04 17:01:41 1011.400 23.6 56 14.3         391.32
2019-Sep-04 18:01:44 1011.400 21.2 73 16.1     0.51 0.51 391.83
2019-Sep-04 19:01:40 1011.100 21.1 76 16.7       0.51 391.83
2019-Sep-04 20:01:45 1011.200 20.6 77 16.4       0.51 391.83
2019-Sep-04 21:01:36 1011.200 19.6 79 15.9       0.51 391.83
2019-Sep-04 22:01:37 1011.600 17.7 82 14.7       0.51 391.83
2019-Sep-04 23:01:45 1011.800 16.4 84 13.7       0.51 391.83

Temperatura Máxima:29°    Temperatura Mínima:12°
Presión Máxima:1014.500 Hpa    Presión Mínima:1011.100 Hpa


Volver